Flight Track Log - Related Links

Times and Time Zones

All times are in EDT time to prevent confusion due to time zone crossing. See the JIA2234 flight status page for this flight to view local times or setup timezone preferences in your user account.

Time Position Orientation Groundspeed Altitude Reporting Facility
EDT Latitude Longitude Course Direction KTS MPH feet Rate Location/Type
Tue 11:15:43 AM 33.5661 -86.7511 77° East 162 186 1,200  Level Atlanta Center
Tue 11:17:10 AM 33.5803 -86.6744 77° East 180 207 4,400 2,122 Climbing Atlanta Center
Tue 11:18:10 AM 33.5592 -86.5914 107° East 214 246 6,400 2,250 Climbing Atlanta Center
Tue 11:19:10 AM 33.5317 -86.5008 110° East 247 284 8,900 2,500 Climbing Atlanta Center
Tue 11:20:10 AM 33.5317 -86.3914 90° East 285 328 11,400 2,400 Climbing Atlanta Center
Tue 11:21:10 AM 33.5381 -86.2769 86° East 309 356 13,700 2,350 Climbing Atlanta Center
Tue 11:22:10 AM 33.5464 -86.1675 85° East 325 374 16,100 2,150 Climbing Atlanta Center
Tue 11:23:10 AM 33.5544 -86.0528 85° East 335 386 18,000 1,700 Climbing Atlanta Center
Tue 11:24:10 AM 33.5586 -85.9258 88° East 350 403 19,500 1,500 Climbing Atlanta Center
Tue 11:25:10 AM 33.5689 -85.7939 85° East 373 429 21,000 1,550 Climbing Atlanta Center
Tue 11:26:10 AM 33.5728 -85.6569 88° East 398 458 22,600 1,550 Climbing Atlanta Center
Tue 11:27:10 AM 33.5808 -85.5150 86° East 420 483 24,100 1,200 Climbing Atlanta Center
Tue 11:28:10 AM 33.5889 -85.3656 86° East 434 499 25,000 450 Climbing Atlanta Center
Tue 11:29:10 AM 33.5944 -85.2333 87° East 443 510 25,000  Level Atlanta Center
Tue 11:30:10 AM 33.6019 -85.0889 86° East 437 503 25,000  Level Atlanta Center
Tue 11:31:10 AM 33.6072 -84.9442 87° East 437 503 25,000  Level Atlanta Center
Tue 11:32:10 AM 33.6125 -84.7972 87° East 437 503 25,000  Level Atlanta Center
Tue 11:33:10 AM 33.6194 -84.6525 87° East 439 505 25,000  Level Atlanta Center
Tue 11:34:09 AM 33.6244 -84.5028 88° East 439 505 25,000  Level Atlanta Center
Tue 11:35:10 AM 33.6478 -84.3608 79° East 439 505 25,000  Level Atlanta Center
Tue 11:36:10 AM 33.6878 -84.2261 70° East 424 488 25,000  Level Atlanta Center
Tue 11:37:10 AM 33.7253 -84.0914 71° East 424 488 25,000  Level Atlanta Center
Tue 11:38:10 AM 33.7628 -83.9614 71° East 424 488 25,000  Level Atlanta Center
Tue 11:39:10 AM 33.7983 -83.8339 71° East 406 467 25,000  Level Atlanta Center
Tue 11:40:10 AM 33.8333 -83.7061 72° East 406 467 25,000  Level Atlanta Center
Tue 11:41:10 AM 33.8686 -83.5836 71° East 395 455 25,000  Level Atlanta Center
Tue 11:42:10 AM 33.9014 -83.4581 73° East 384 442 25,000  Level Atlanta Center
Tue 11:43:10 AM 33.9361 -83.3278 72° East 378 435 25,000  Level Atlanta Center
Tue 11:44:10 AM 33.9750 -83.2072 69° East 378 435 25,000  Level Atlanta Center
Tue 11:45:10 AM 34.0264 -83.0989 60° Northeast 367 422 25,000  Level Atlanta Center
Tue 11:46:10 AM 34.0778 -82.9906 60° Northeast 372 428 25,000  Level Atlanta Center
Tue 11:47:10 AM 34.1289 -82.8769 61° Northeast 379 436 25,000  Level Atlanta Center
Tue 11:48:10 AM 34.1822 -82.7656 60° Northeast 379 436 25,000 -300 Level Atlanta Center
Tue 11:49:10 AM 34.2350 -82.6492 61° Northeast 379 436 24,400 -500 Descending Atlanta Center
Tue 11:50:10 AM 34.2900 -82.5353 60° Northeast 389 448 24,000 -200 Descending Atlanta Center
Tue 11:51:10 AM 34.3428 -82.4161 62° Northeast 394 453 24,000  Level Atlanta Center
Tue 11:52:10 AM 34.3956 -82.2942 62° Northeast 404 465 24,000 -850 Level Atlanta Center
Tue 11:53:10 AM 34.4542 -82.1772 59° Northeast 404 465 22,300 -1,800 Descending Atlanta Center
Tue 11:54:10 AM 34.5006 -82.0678 63° Northeast 404 465 20,400 -2,050 Descending Atlanta Center
Tue 11:55:10 AM 34.5528 -81.9481 62° Northeast 404 465 18,200 -2,357 Descending Atlanta Center
Tue 11:56:02 AM 34.6031 -81.8356 61° Northeast 390 449 16,000 -2,200 Descending Atlanta Center
Tue 11:57:10 AM 34.6531 -81.7233 62° Northeast 374 430 13,800 -1,688 Descending Atlanta Center
Tue 11:58:10 AM 34.7031 -81.6083 62° Northeast 321 369 12,400 -900 Descending Atlanta Center
Tue 11:59:10 AM 34.7414 -81.5389 56° Northeast 306 352 12,000 -200 Descending Atlanta Center
Tue 12:00:10 PM 34.7961 -81.4639 48° Northeast 285 328 12,000 -400 Level Atlanta Center
Tue 12:01:10 PM 34.8572 -81.3861 46° Northeast 285 328 11,200 -800 Descending Atlanta Center
Tue 12:02:10 PM 34.9119 -81.3158 46° Northeast 285 328 10,400 -810 Descending Atlanta Center
Tue 12:03:16 PM 34.9728 -81.2353 47° Northeast 289 333 9,500 -700 Descending Atlanta Center
Tue 12:04:10 PM 35.0233 -81.1703 46° Northeast 285 328 9,000 -263 Descending Atlanta Center
Tue 12:05:10 PM 35.0781 -81.0972 48° Northeast 285 328 9,000  Level Atlanta Center
Tue 12:06:18 PM 35.1567 -81.0692 16° North 282 325 9,000 -372 Level Atlanta Center
Tue 12:07:19 PM 35.2297 -81.0742 357° North 247 284 8,200 -1,279 Descending Atlanta Center
Tue 12:08:20 PM 35.2986 -81.0792 357° North 227 261 6,400 -1,623 Descending Atlanta Center
Tue 12:09:21 PM 35.3569 -81.0669 10° North 227 261 4,900 -1,397 Descending Atlanta Center
Tue 12:10:16 PM 35.3656 -81.0031 81° East 226 260 3,700 -1,140 Descending Atlanta Center
Tue 12:11:22 PM 35.3150 -80.9794 159° South 177 204 2,600 -887 Descending Atlanta Center
Tue 12:12:11 PM 35.2836 -80.9756 174° South 148 170 2,000 -776 Descending Atlanta Center
Tue 12:13:18 PM 35.2397 -80.9719 176° South 129 148 1,100 -806 Descending Atlanta Center
Tue 12:15:00 PM 35.2137 -80.9491 158° South  Level Estimated

Login

Don't have an account? Register now (free) for customized features, flight alerts, and more!